Time;durP1;ratioP1;P1;durP2;ratioP2;P2;SDS_P1;SDS_P2;PMS_P1;PMS_P2;Temp;Humidity;BMP_temperature;BMP_pressure;BME280_temperature;BME280_humidity;BME280_pressure;Samples;Min_cycle;Max_cycle;Signal;HPM_P1;HPM_P2
2021/12/21 00:02:21;;;;;;;52.22;18.98;;;-2.30;99.90;;;;;;5125417;28;20047;-72
2021/12/21 00:04:47;;;;;;;47.72;17.98;;;-2.30;99.90;;;;;;5140439;27;20547;-72
2021/12/21 00:07:12;;;;;;;49.92;16.75;;;-2.30;99.90;;;;;;5106686;28;20067;-73
2021/12/21 00:09:38;;;;;;;54.83;18.48;;;-2.40;99.90;;;;;;5122487;28;20054;-72
2021/12/21 00:12:04;;;;;;;50.70;17.52;;;-2.40;99.90;;;;;;5086525;28;20123;-71
2021/12/21 00:14:43;;;;;;;47.95;17.15;;;-2.40;99.90;;;;;;5100884;28;20066;-72
2021/12/21 00:17:17;;;;;;;44.58;15.93;;;-2.40;99.90;;;;;;5106340;28;20035;-72
2021/12/21 00:22:27;;;;;;;46.78;15.98;;;-2.40;99.90;;;;;;5081741;28;20086;-72
2021/12/21 00:24:53;;;;;;;41.53;14.77;;;-2.40;99.90;;;;;;5133328;27;20044;-73
2021/12/21 00:27:19;;;;;;;39.85;14.30;;;-2.40;99.90;;;;;;5101160;28;20495;-71
2021/12/21 00:29:45;;;;;;;35.65;14.32;;;-2.40;99.90;;;;;;5120257;28;20119;-74
2021/12/21 00:32:11;;;;;;;40.92;14.93;;;-2.40;99.90;;;;;;5120311;28;20047;-71
2021/12/21 00:34:38;;;;;;;36.35;13.52;;;-2.50;99.90;;;;;;5100102;28;20481;-73
2021/12/21 00:37:04;;;;;;;50.35;16.42;;;-2.50;99.90;;;;;;5116309;27;20055;-73
2021/12/21 00:39:30;;;;;;;47.33;17.98;;;-2.50;99.90;;;;;;5098759;28;20062;-74
2021/12/21 00:41:55;;;;;;;42.53;16.38;;;-2.60;99.90;;;;;;5115835;28;20044;-73
2021/12/21 00:44:21;;;;;;;45.72;16.10;;;-2.60;99.90;;;;;;5097443;28;20055;-72
2021/12/21 00:46:47;;;;;;;49.05;15.55;;;-2.60;99.90;;;;;;5115678;28;20132;-73
2021/12/21 00:49:14;;;;;;;45.85;16.33;;;-2.60;99.90;;;;;;5115360;28;20093;-72
2021/12/21 00:51:41;;;;;;;;;;;-2.60;99.90;;;;;;5096578;28;20074;-73
2021/12/21 00:54:07;;;;;;;46.08;16.75;;;-2.60;99.90;;;;;;5097098;28;20010;-73
2021/12/21 00:56:33;;;;;;;51.33;18.80;;;-2.60;99.90;;;;;;5113675;28;20143;-72
2021/12/21 00:58:59;;;;;;;50.83;18.33;;;-2.50;99.90;;;;;;5097357;28;20051;-72
2021/12/21 01:01:25;;;;;;;48.70;16.95;;;-2.50;99.90;;;;;;5115046;28;20048;-76
2021/12/21 01:03:53;;;;;;;42.28;16.55;;;-2.50;99.90;;;;;;5114927;28;20387;-73
2021/12/21 01:11:26;;;;;;;32.50;12.80;;;-2.60;99.90;;;;;;5096661;28;20480;-74
2021/12/21 01:19:12;;;;;;;30.38;13.45;;;-2.70;99.90;;;;;;5115070;28;20113;-74
2021/12/21 01:22:06;;;;;;;32.05;13.63;;;-2.70;99.90;;;;;;5114547;28;20055;-74
2021/12/21 01:34:47;;;;;;;33.70;13.48;;;-2.70;99.90;;;;;;5079582;28;20048;-78
2021/12/21 01:40:02;;;;;;;40.55;13.68;;;-2.80;99.90;;;;;;5114792;28;20061;-73
2021/12/21 01:42:46;;;;;;;36.28;13.35;;;-2.80;99.90;;;;;;5114346;28;20047;-73
2021/12/21 01:50:47;;;;;;;38.00;14.38;;;-2.80;99.90;;;;;;5095660;28;20059;-74
2021/12/21 01:53:13;;;;;;;32.22;14.00;;;-2.90;99.90;;;;;;5079451;28;20041;-75
2021/12/21 01:55:39;;;;;;;36.35;14.27;;;-2.90;99.90;;;;;;5114155;28;20086;-75
2021/12/21 01:58:05;;;;;;;40.08;14.18;;;-2.90;99.90;;;;;;5113969;28;20047;-76
2021/12/21 02:00:31;;;;;;;38.28;13.88;;;-2.80;99.90;;;;;;5113728;28;20146;-75
2021/12/21 02:02:57;;;;;;;35.50;14.40;;;-2.80;99.90;;;;;;5114232;28;20047;-75
2021/12/21 02:05:23;;;;;;;36.58;14.45;;;-2.80;99.90;;;;;;5096190;28;20340;-75
2021/12/21 02:07:49;;;;;;;37.88;14.07;;;-2.90;99.90;;;;;;5095718;28;20058;-75
2021/12/21 02:10:15;;;;;;;39.42;14.85;;;-2.80;99.90;;;;;;5113831;28;20051;-75
2021/12/21 02:12:40;;;;;;;35.25;14.10;;;-2.80;99.90;;;;;;5114115;28;20062;-75
2021/12/21 02:15:07;;;;;;;36.63;14.00;;;-2.80;99.90;;;;;;5112994;28;20040;-75
2021/12/21 02:23:06;;;;;;;41.50;15.27;;;-2.90;99.90;;;;;;5113940;28;20047;-76
2021/12/21 02:25:51;;;;;;;36.47;15.20;;;-2.90;99.90;;;;;;5113894;28;20044;-76
2021/12/21 02:30:49;;;;;;;44.17;16.30;;;-2.90;99.90;;;;;;5113789;28;20398;-76
2021/12/21 02:33:15;;;;;;;37.47;15.77;;;-2.90;99.90;;;;;;5078943;28;20039;-76
2021/12/21 02:35:42;;;;;;;39.55;14.93;;;-2.90;99.90;;;;;;5095086;28;20093;-76
2021/12/21 02:38:08;;;;;;;38.73;15.07;;;-2.90;99.90;;;;;;5129478;27;20052;-75
2021/12/21 02:40:35;;;;;;;32.95;14.57;;;-2.90;99.90;;;;;;5129555;27;20198;-76
2021/12/21 02:43:03;;;;;;;41.10;16.35;;;-2.90;99.90;;;;;;5111915;28;20043;-76
2021/12/21 02:45:29;;;;;;;33.65;15.40;;;-3.00;99.90;;;;;;5128873;27;20126;-75
2021/12/21 02:47:55;;;;;;;32.63;13.95;;;-3.00;99.90;;;;;;5112786;28;20143;-75
2021/12/21 02:50:21;;;;;;;49.20;17.05;;;-3.00;99.90;;;;;;5113743;28;20064;-75
2021/12/21 02:52:47;;;;;;;35.00;14.43;;;-3.00;99.90;;;;;;5129896;27;20102;-76
2021/12/21 02:55:14;;;;;;;38.40;14.82;;;-3.10;99.90;;;;;;5094708;28;20071;-75
2021/12/21 02:57:40;;;;;;;36.47;14.68;;;-3.10;99.90;;;;;;5094960;28;20394;-76
2021/12/21 03:00:08;;;;;;;32.33;13.93;;;-3.10;99.90;;;;;;5113383;28;20039;-76
2021/12/21 03:02:33;;;;;;;35.00;14.18;;;-3.10;99.90;;;;;;5129086;27;20043;-75
2021/12/21 03:04:59;;;;;;;39.28;13.85;;;-3.10;99.90;;;;;;5094556;28;20087;-75
2021/12/21 03:10:13;;;;;;;40.78;14.88;;;-3.10;99.90;;;;;;5113583;28;20422;-75
2021/12/21 03:15:26;;;;;;;46.10;14.90;;;-3.20;99.90;;;;;;5099551;28;20099;-75
2021/12/21 03:17:54;;;;;;;38.00;14.45;;;-3.20;99.90;;;;;;5098795;28;20139;-75
2021/12/21 03:20:20;;;;;;;38.28;14.15;;;-3.20;99.90;;;;;;5117133;28;20043;-75
2021/12/21 03:22:46;;;;;;;38.08;14.75;;;-3.20;99.90;;;;;;5117872;28;20044;-76
2021/12/21 03:25:12;;;;;;;32.42;14.52;;;-3.20;99.90;;;;;;5099002;28;20535;-77
2021/12/21 03:27:38;;;;;;;40.97;15.18;;;-3.20;99.90;;;;;;5117054;28;20118;-76
2021/12/21 03:30:07;;;;;;;40.75;15.85;;;-3.20;99.90;;;;;;5099328;28;20043;-76
2021/12/21 03:32:32;;;;;;;42.95;15.30;;;-3.20;99.90;;;;;;5116826;28;20052;-75
2021/12/21 03:34:58;;;;;;;35.78;15.07;;;-3.20;99.90;;;;;;5099201;28;20048;-75
2021/12/21 03:37:24;;;;;;;36.55;15.25;;;-3.20;99.90;;;;;;5098272;28;20047;-74
2021/12/21 03:39:52;;;;;;;39.05;14.88;;;-3.20;99.90;;;;;;5098577;28;20113;-75
2021/12/21 03:42:18;;;;;;;44.00;15.70;;;-3.30;99.90;;;;;;5117941;28;20116;-75
2021/12/21 03:44:44;;;;;;;41.40;16.02;;;-3.20;99.90;;;;;;5099333;28;20036;-76
2021/12/21 03:47:11;;;;;;;40.25;15.48;;;-3.30;99.90;;;;;;5116876;28;20542;-75
2021/12/21 03:52:16;;;;;;;41.58;15.77;;;-3.30;99.90;;;;;;5098914;28;20049;-76
2021/12/21 03:54:49;;;;;;;36.03;15.27;;;-3.30;99.90;;;;;;5132721;27;20043;-76
2021/12/21 03:57:16;;;;;;;39.28;15.18;;;-3.30;99.90;;;;;;5116850;28;20044;-75
2021/12/21 03:59:43;;;;;;;36.60;14.70;;;-3.30;99.90;;;;;;5115962;28;20176;-75
2021/12/21 04:02:11;;;;;;;33.50;14.15;;;-3.30;99.90;;;;;;5117621;28;20356;-75
2021/12/21 04:04:38;;;;;;;37.88;14.30;;;-3.40;99.90;;;;;;5117611;28;20130;-76
2021/12/21 04:07:04;;;;;;;33.97;15.32;;;-3.30;99.90;;;;;;5115927;28;20044;-76
2021/12/21 04:09:29;;;;;;;36.05;14.60;;;-3.30;99.90;;;;;;5115894;28;20050;-75
2021/12/21 04:11:55;;;;;;;36.80;16.15;;;-3.30;99.90;;;;;;5097474;28;20051;-76
2021/12/21 04:14:21;;;;;;;37.05;14.50;;;-3.30;99.90;;;;;;5131914;27;20052;-76
2021/12/21 04:16:48;;;;;;;37.80;15.70;;;-3.40;99.90;;;;;;5115891;28;20045;-76
2021/12/21 04:19:14;;;;;;;35.67;15.77;;;-3.40;99.90;;;;;;5132140;27;20048;-75
2021/12/21 04:21:41;;;;;;;42.72;15.43;;;-3.40;99.90;;;;;;5131825;27;20435;-76
2021/12/21 04:24:06;;;;;;;35.38;15.65;;;-3.40;99.90;;;;;;5116124;28;20046;-75
2021/12/21 04:26:32;;;;;;;34.55;15.35;;;-3.40;99.90;;;;;;5095910;28;20126;-75
2021/12/21 04:28:58;;;;;;;35.60;15.20;;;-3.40;99.90;;;;;;5080825;28;20055;-75
2021/12/21 04:31:24;;;;;;;46.20;15.10;;;-3.40;99.90;;;;;;5131648;27;20043;-76
2021/12/21 04:33:50;;;;;;;33.80;15.60;;;-3.40;99.90;;;;;;5080479;28;20388;-76
2021/12/21 04:36:15;;;;;;;40.22;14.80;;;-3.50;99.90;;;;;;5115286;28;20051;-76
2021/12/21 04:38:44;;;;;;;36.40;15.52;;;-3.50;99.90;;;;;;5097180;28;20070;-77
2021/12/21 04:41:15;;;;;;;36.03;15.82;;;-3.40;99.90;;;;;;5114987;28;20040;-75
2021/12/21 04:43:43;;;;;;;39.72;16.38;;;-3.50;99.90;;;;;;5096850;28;20047;-76
2021/12/21 04:46:10;;;;;;;36.65;15.05;;;-3.50;99.90;;;;;;5097057;28;20055;-76
2021/12/21 04:48:36;;;;;;;39.42;16.05;;;-3.50;99.90;;;;;;5114908;28;20387;-76
2021/12/21 04:51:02;;;;;;;32.90;15.23;;;-3.50;99.90;;;;;;5115001;28;20074;-76
2021/12/21 04:53:28;;;;;;;41.90;19.30;;;-3.50;99.90;;;;;;5115182;28;20044;-76
2021/12/21 04:55:54;;;;;;;43.78;20.85;;;-3.50;99.90;;;;;;5080026;28;20043;-75
2021/12/21 04:58:20;;;;;;;48.08;18.85;;;-3.50;99.90;;;;;;5115069;28;20135;-75
2021/12/21 05:00:47;;;;;;;37.42;16.98;;;-3.50;99.90;;;;;;5114868;28;20130;-75
2021/12/21 05:03:13;;;;;;;43.58;15.60;;;-3.50;99.90;;;;;;5096894;28;20054;-75
2021/12/21 05:05:39;;;;;;;36.08;14.88;;;-3.50;99.90;;;;;;5114681;28;20048;-75
2021/12/21 05:08:12;;;;;;;35.80;15.32;;;-3.50;99.90;;;;;;5097233;28;20040;-75
2021/12/21 05:10:52;;;;;;;35.97;15.55;;;-3.50;99.90;;;;;;5096596;28;20052;-75
2021/12/21 05:13:20;;;;;;;37.53;15.82;;;-3.50;99.90;;;;;;5131232;27;20108;-75
2021/12/21 05:15:46;;;;;;;36.38;15.38;;;-3.40;99.90;;;;;;5113952;28;20468;-75
2021/12/21 05:18:14;;;;;;;33.22;14.32;;;-3.50;99.90;;;;;;5117404;28;20044;-77
2021/12/21 05:20:41;;;;;;;33.67;14.40;;;-3.60;99.90;;;;;;5131118;27;20047;-75
2021/12/21 05:23:08;;;;;;;43.08;15.63;;;-3.50;99.90;;;;;;5079546;28;20377;-76
2021/12/21 05:25:34;;;;;;;40.63;16.25;;;-3.50;99.90;;;;;;5130569;27;20108;-76
2021/12/21 05:28:00;;;;;;;39.05;14.93;;;-3.50;99.90;;;;;;5079261;28;20043;-75
2021/12/21 05:30:27;;;;;;;35.38;15.38;;;-3.50;99.90;;;;;;5095914;28;20047;-75
2021/12/21 05:32:54;;;;;;;37.53;15.10;;;-3.50;99.90;;;;;;5096253;28;20403;-75
2021/12/21 05:35:21;;;;;;;33.55;15.57;;;-3.50;99.90;;;;;;5114650;28;20035;-75
2021/12/21 05:37:48;;;;;;;40.47;16.45;;;-3.60;99.90;;;;;;5113733;28;20184;-74
2021/12/21 05:40:16;;;;;;;31.13;14.98;;;-3.50;99.90;;;;;;5096456;28;20425;-75
2021/12/21 05:42:47;;;;;;;32.67;15.18;;;-3.60;99.90;;;;;;5096182;28;20044;-75
2021/12/21 05:45:16;;;;;;;35.95;15.45;;;-3.60;99.90;;;;;;5114624;28;20349;-75
2021/12/21 05:47:43;;;;;;;37.92;15.38;;;-3.60;99.90;;;;;;5130296;27;20055;-75
2021/12/21 05:50:12;;;;;;;34.70;15.60;;;-3.60;99.90;;;;;;5130926;27;20051;-75
2021/12/21 05:52:38;;;;;;;36.75;16.45;;;-3.60;99.90;;;;;;5096266;28;20464;-75
2021/12/21 05:55:05;;;;;;;39.22;14.82;;;-3.60;99.90;;;;;;5113996;28;20048;-76
2021/12/21 05:57:31;;;;;;;34.17;16.65;;;-3.70;99.90;;;;;;5095845;28;20134;-75
2021/12/21 05:59:57;;;;;;;33.65;16.00;;;-3.70;99.90;;;;;;5095589;28;20051;-78
2021/12/21 06:02:24;;;;;;;44.92;16.58;;;-3.70;99.90;;;;;;5114036;28;20047;-75
2021/12/21 06:04:50;;;;;;;43.83;16.20;;;-3.70;99.90;;;;;;5095738;28;20044;-75
2021/12/21 06:07:15;;;;;;;35.03;16.00;;;-3.70;99.90;;;;;;5095508;28;20440;-74
2021/12/21 06:09:44;;;;;;;40.30;16.70;;;-3.70;99.90;;;;;;5095729;28;20134;-76
2021/12/21 06:12:34;;;;;;;35.38;16.60;;;-3.70;99.90;;;;;;5113565;28;20525;-76
2021/12/21 06:25:38;;;;;;;36.05;15.80;;;-3.70;99.90;;;;;;5113680;28;20079;-76
2021/12/21 06:28:05;;;;;;;42.25;16.60;;;-3.70;99.90;;;;;;5095612;28;20047;-76
2021/12/21 06:30:31;;;;;;;39.65;16.13;;;-3.70;99.90;;;;;;5078300;28;20086;-76
2021/12/21 06:32:57;;;;;;;33.40;15.38;;;-3.70;99.90;;;;;;5112875;28;20050;-75
2021/12/21 06:35:23;;;;;;;37.22;17.77;;;-3.70;99.90;;;;;;5112767;28;20035;-77
2021/12/21 06:37:49;;;;;;;37.85;16.88;;;-3.70;99.90;;;;;;5079136;28;20131;-77
2021/12/21 06:40:16;;;;;;;39.47;17.35;;;-3.70;99.90;;;;;;5096624;28;20043;-76
2021/12/21 06:42:43;;;;;;;38.42;16.48;;;-3.70;99.90;;;;;;5096161;28;20157;-77
2021/12/21 06:45:25;;;;;;;40.75;17.15;;;-3.80;99.90;;;;;;5096012;28;20047;-76
2021/12/21 06:53:21;;;;;;;43.83;17.65;;;-3.80;99.90;;;;;;5096172;28;20047;-77
2021/12/21 06:55:46;;;;;;;46.05;16.95;;;-3.80;99.90;;;;;;5079165;28;20096;-76
2021/12/21 06:58:12;;;;;;;46.05;17.42;;;-3.80;99.90;;;;;;5096260;28;20387;-76
2021/12/21 07:00:39;;;;;;;34.70;16.38;;;-3.80;99.90;;;;;;5095645;28;20039;-77
2021/12/21 07:03:05;;;;;;;37.88;16.45;;;-3.80;99.90;;;;;;5063218;28;20092;-76
2021/12/21 07:05:31;;;;;;;38.70;15.82;;;-3.90;99.90;;;;;;5115341;28;20083;-78
2021/12/21 07:07:57;;;;;;;42.13;16.73;;;-3.80;99.90;;;;;;5095684;28;20057;-76
2021/12/21 07:10:26;;;;;;;41.17;16.40;;;-3.90;99.90;;;;;;5112756;28;20043;-76
2021/12/21 07:18:29;;;;;;;42.72;17.17;;;-4.00;99.90;;;;;;5113236;28;20492;-76
2021/12/21 07:21:00;;;;;;;37.38;16.05;;;-4.00;99.90;;;;;;5095743;28;20046;-76
2021/12/21 07:23:27;;;;;;;40.92;17.95;;;-3.90;99.90;;;;;;5112501;28;20056;-77
2021/12/21 07:25:53;;;;;;;45.20;19.35;;;-4.00;99.90;;;;;;5128794;28;20040;-76
2021/12/21 07:28:19;;;;;;;46.47;19.23;;;-4.00;99.90;;;;;;5094140;28;20140;-75
2021/12/21 07:30:47;;;;;;;52.65;19.25;;;-4.00;99.90;;;;;;5113193;28;20052;-76
2021/12/21 07:33:14;;;;;;;43.00;19.52;;;-3.90;99.90;;;;;;5094190;28;20134;-76
2021/12/21 07:35:40;;;;;;;48.33;21.90;;;-3.90;99.90;;;;;;5094803;28;20040;-76
2021/12/21 07:38:06;;;;;;;52.28;21.17;;;-3.90;99.90;;;;;;5112720;28;20040;-77
2021/12/21 07:40:32;;;;;;;47.83;21.27;;;-3.90;99.90;;;;;;5094527;28;20043;-77
2021/12/21 07:43:00;;;;;;;49.35;19.75;;;-3.90;99.90;;;;;;5094550;28;20184;-76
2021/12/21 07:45:26;;;;;;;52.42;19.15;;;-3.90;99.90;;;;;;5112564;28;20104;-77
2021/12/21 07:47:52;;;;;;;50.65;18.02;;;-3.90;99.90;;;;;;5060976;28;20108;-77
2021/12/21 07:50:19;;;;;;;43.97;17.73;;;-3.90;99.90;;;;;;5078599;28;20056;-77
2021/12/21 07:52:46;;;;;;;43.80;17.90;;;-4.00;99.90;;;;;;5132978;28;20075;-76
2021/12/21 07:55:11;;;;;;;42.63;18.92;;;-3.90;99.90;;;;;;5102936;28;20044;-77
2021/12/21 07:57:37;;;;;;;42.17;18.58;;;-3.90;99.90;;;;;;5118830;28;20058;-76
2021/12/21 08:00:06;;;;;;;52.92;20.63;;;-3.90;99.90;;;;;;5102021;28;20050;-76
2021/12/21 08:02:33;;;;;;;46.78;19.38;;;-3.90;99.90;;;;;;5106252;28;20063;-77
2021/12/21 08:04:59;;;;;;;39.22;18.35;;;-3.90;99.90;;;;;;5106165;28;20047;-76
2021/12/21 08:07:32;;;;;;;43.83;19.67;;;-3.90;99.90;;;;;;5122375;28;20052;-77
2021/12/21 08:10:06;;;;;;;44.25;18.50;;;-3.80;99.90;;;;;;5105474;28;20096;-76
2021/12/21 08:12:32;;;;;;;40.95;18.25;;;-3.80;99.90;;;;;;5140275;27;20059;-76
2021/12/21 08:14:58;;;;;;;44.67;19.80;;;-3.80;99.90;;;;;;5124098;28;20441;-77
2021/12/21 08:17:25;;;;;;;56.83;21.88;;;-3.80;99.90;;;;;;5127997;27;20043;-78
2021/12/21 08:19:52;;;;;;;47.42;22.42;;;-3.70;99.90;;;;;;5116704;28;20476;-76
2021/12/21 08:22:18;;;;;;;49.75;23.15;;;-3.70;99.90;;;;;;5127311;28;20089;-76
2021/12/21 08:24:44;;;;;;;50.63;22.52;;;-3.60;99.90;;;;;;5125509;28;20101;-76
2021/12/21 08:27:11;;;;;;;48.15;21.63;;;-3.60;99.90;;;;;;5108186;28;20055;-76
2021/12/21 08:29:37;;;;;;;43.70;21.77;;;-3.50;99.90;;;;;;5141704;27;20036;-75
2021/12/21 08:32:03;;;;;;;53.30;21.98;;;-3.50;99.90;;;;;;5107860;28;20043;-75
2021/12/21 08:34:28;;;;;;;49.15;21.73;;;-3.50;99.90;;;;;;5107437;28;20189;-76
2021/12/21 08:36:55;;;;;;;54.38;20.60;;;-3.50;99.90;;;;;;5089901;28;20089;-75
2021/12/21 08:39:23;;;;;;;48.58;20.63;;;-3.50;99.90;;;;;;5106770;28;20055;-76
2021/12/21 08:41:55;;;;;;;47.38;21.67;;;-3.40;99.90;;;;;;5142572;27;20071;-75
2021/12/21 08:44:23;;;;;;;47.90;22.60;;;-3.40;99.90;;;;;;5107348;28;20053;-76
2021/12/21 08:46:49;;;;;;;54.85;23.08;;;-3.30;99.90;;;;;;5123950;28;20044;-75
2021/12/21 08:49:15;;;;;;;54.72;22.15;;;-3.30;99.90;;;;;;5105006;28;20086;-75
2021/12/21 08:51:41;;;;;;;45.42;21.92;;;-3.20;99.90;;;;;;5110308;28;20070;-76
2021/12/21 08:54:06;;;;;;;48.88;22.10;;;-3.20;99.90;;;;;;5109591;28;20092;-75
2021/12/21 08:56:32;;;;;;;45.78;21.92;;;-3.20;99.90;;;;;;5105944;28;20420;-77
2021/12/21 08:58:58;;;;;;;52.75;21.85;;;-3.20;99.90;;;;;;5103957;28;20395;-76
2021/12/21 09:01:24;;;;;;;53.17;23.17;;;-3.10;99.90;;;;;;5123350;28;20050;-76
2021/12/21 09:03:50;;;;;;;50.88;24.48;;;-3.00;99.90;;;;;;5124259;28;20050;-76
2021/12/21 09:06:15;;;;;;;54.05;26.73;;;-2.90;99.90;;;;;;5105648;28;20092;-76
2021/12/21 09:08:41;;;;;;;55.08;26.30;;;-2.90;99.90;;;;;;5124168;28;20408;-76
2021/12/21 09:11:07;;;;;;;63.33;26.80;;;-2.80;99.90;;;;;;5126003;28;20048;-74
2021/12/21 09:13:33;;;;;;;61.30;26.25;;;-2.70;99.90;;;;;;5093382;28;20040;-77
2021/12/21 09:15:59;;;;;;;56.78;25.90;;;-2.70;99.90;;;;;;5110234;28;20043;-77
2021/12/21 09:18:25;;;;;;;55.33;27.02;;;-2.70;99.90;;;;;;5141885;27;20043;-76
2021/12/21 09:20:51;;;;;;;58.15;26.00;;;-2.70;99.90;;;;;;5125492;28;20055;-76
2021/12/21 09:23:17;;;;;;;62.53;27.13;;;-2.60;99.90;;;;;;5105530;28;20047;-77
2021/12/21 09:25:43;;;;;;;64.75;28.98;;;-2.50;99.90;;;;;;5088473;28;20123;-77
2021/12/21 09:28:09;;;;;;;63.58;29.95;;;-2.50;99.90;;;;;;5106642;28;20078;-76
2021/12/21 09:30:35;;;;;;;73.88;30.20;;;-2.50;99.90;;;;;;5123126;28;20039;-76
2021/12/21 09:33:02;;;;;;;72.63;30.95;;;-2.50;99.90;;;;;;5104522;28;20055;-77
2021/12/21 09:35:28;;;;;;;80.03;35.72;;;-2.40;99.90;;;;;;5087925;28;20054;-77
2021/12/21 09:37:54;;;;;;;94.57;35.95;;;-2.10;99.90;;;;;;5121940;28;20044;-77
2021/12/21 09:40:25;;;;;;;88.57;35.50;;;-2.10;99.90;;;;;;5130813;28;20075;-76
2021/12/21 09:42:52;;;;;;;73.65;32.90;;;-2.00;99.90;;;;;;5105503;28;20289;-76
2021/12/21 09:45:18;;;;;;;73.90;31.33;;;-1.90;99.90;;;;;;5103967;28;20403;-75
2021/12/21 09:47:45;;;;;;;65.65;28.77;;;-1.80;99.90;;;;;;5102857;28;20056;-75
2021/12/21 09:50:15;;;;;;;64.80;28.50;;;-1.70;99.90;;;;;;5122443;28;20051;-75
2021/12/21 09:52:41;;;;;;;69.03;30.00;;;-1.60;99.90;;;;;;5088436;28;20276;-76
2021/12/21 09:55:11;;;;;;;79.95;31.95;;;-1.50;99.90;;;;;;5104605;28;20039;-76
2021/12/21 09:57:36;;;;;;;84.75;34.20;;;-1.50;99.90;;;;;;5086827;28;20051;-75
2021/12/21 10:00:06;;;;;;;72.70;33.90;;;-1.50;99.90;;;;;;5121502;28;20047;-76
2021/12/21 10:02:34;;;;;;;72.00;33.78;;;-1.40;99.90;;;;;;5104357;28;20048;-77
2021/12/21 10:05:04;;;;;;;70.47;32.67;;;-1.30;99.90;;;;;;5104336;28;20451;-76
2021/12/21 10:07:31;;;;;;;72.35;32.25;;;-1.30;99.90;;;;;;5122621;28;20554;-76
2021/12/21 10:10:07;;;;;;;77.55;35.10;;;-1.30;99.90;;;;;;5085592;28;20094;-76
2021/12/21 10:12:35;;;;;;;72.47;34.47;;;-1.30;99.90;;;;;;5102566;28;20044;-76
2021/12/21 10:15:07;;;;;;;81.43;35.78;;;-1.20;99.90;;;;;;5085575;28;20043;-74
2021/12/21 10:17:35;;;;;;;85.82;36.38;;;-1.20;99.90;;;;;;5101780;28;20051;-79
2021/12/21 10:20:09;;;;;;;86.68;37.20;;;-1.10;99.90;;;;;;5101849;28;20090;-76
2021/12/21 10:22:38;;;;;;;76.03;35.60;;;-1.00;99.90;;;;;;5101347;28;20576;-75
2021/12/21 10:25:08;;;;;;;85.03;35.40;;;-0.90;99.90;;;;;;5103193;28;20108;-75
2021/12/21 10:27:43;;;;;;;92.20;38.42;;;-0.90;99.90;;;;;;5120230;28;20152;-76
2021/12/21 10:30:09;;;;;;;79.78;37.78;;;-0.80;99.90;;;;;;5102093;28;20047;-75
2021/12/21 10:32:35;;;;;;;86.38;37.97;;;-0.80;99.90;;;;;;5102926;28;20054;-75
2021/12/21 10:35:05;;;;;;;92.05;39.30;;;-0.70;99.90;;;;;;5120964;28;20044;-75
2021/12/21 10:37:37;;;;;;;86.93;37.17;;;-0.60;99.90;;;;;;5102694;28;20047;-77
2021/12/21 10:40:25;;;;;;;81.18;37.13;;;-0.60;99.90;;;;;;5102465;28;20047;-75
2021/12/21 10:42:52;;;;;;;88.35;39.13;;;-0.60;99.90;;;;;;5122601;28;20051;-74
2021/12/21 10:45:25;;;;;;;81.32;37.33;;;-0.50;99.90;;;;;;5118071;28;20069;-75
2021/12/21 10:47:52;;;;;;;82.70;36.70;;;-0.30;99.90;;;;;;5068870;28;20051;-74
2021/12/21 10:50:18;;;;;;;84.45;36.67;;;-0.40;99.90;;;;;;5135894;27;20056;-75
2021/12/21 10:52:54;;;;;;;84.90;35.85;;;-0.40;99.90;;;;;;5085576;28;20093;-73
2021/12/21 10:55:27;;;;;;;80.03;35.60;;;-0.40;99.90;;;;;;5085221;28;20122;-74
2021/12/21 10:58:16;;;;;;;80.53;35.35;;;-0.30;99.90;;;;;;5117868;28;20123;-78
2021/12/21 11:00:54;;;;;;;88.50;37.78;;;-0.30;99.90;;;;;;5102724;28;20043;-74
2021/12/21 11:03:38;;;;;;;81.93;36.08;;;-0.20;99.90;;;;;;5119828;28;20044;-73
2021/12/21 11:06:18;;;;;;;75.63;34.83;;;-0.10;99.90;;;;;;5116179;28;20046;-74
2021/12/21 11:08:46;;;;;;;78.78;33.55;;;0.00;99.90;;;;;;5113652;28;20059;-73
2021/12/21 11:11:27;;;;;;;75.40;33.05;;;0.00;99.90;;;;;;5115270;28;20039;-73
2021/12/21 11:14:09;;;;;;;71.18;30.75;;;-0.10;99.90;;;;;;5132359;28;20134;-74
2021/12/21 11:16:37;;;;;;;67.07;31.38;;;0.00;99.90;;;;;;5123157;28;20047;-73
2021/12/21 11:19:04;;;;;;;68.70;29.75;;;0.00;99.90;;;;;;5104719;28;20047;-73
2021/12/21 11:21:31;;;;;;;59.45;28.13;;;0.10;99.90;;;;;;5136670;28;20047;-74
2021/12/21 11:24:02;;;;;;;70.30;29.23;;;0.20;99.90;;;;;;5120422;28;20077;-73
2021/12/21 11:26:30;;;;;;;59.40;27.90;;;0.20;99.90;;;;;;5105183;28;20126;-73
2021/12/21 11:29:00;;;;;;;64.68;28.80;;;0.20;99.90;;;;;;5105406;28;20071;-73
2021/12/21 11:31:26;;;;;;;66.35;26.90;;;0.30;99.90;;;;;;5104788;28;20127;-73
2021/12/21 11:33:57;;;;;;;63.40;27.40;;;0.30;99.90;;;;;;5122640;28;20056;-73
2021/12/21 11:39:08;;;;;;;53.63;25.27;;;0.40;99.90;;;;;;5126459;28;20043;-72
2021/12/21 11:41:37;;;;;;;61.83;25.92;;;0.40;99.90;;;;;;5124979;28;20104;-74
2021/12/21 11:44:12;;;;;;;54.40;24.42;;;0.50;99.90;;;;;;5141840;27;20134;-73
2021/12/21 11:46:51;;;;;;;57.90;25.08;;;0.50;99.90;;;;;;5138311;27;20040;-71
2021/12/21 11:49:23;;;;;;;50.55;23.63;;;0.50;99.90;;;;;;5123413;28;20476;-73
2021/12/21 11:51:49;;;;;;;48.85;22.77;;;0.50;99.90;;;;;;5123320;28;20499;-72
2021/12/21 11:54:18;;;;;;;50.13;22.90;;;0.70;99.90;;;;;;5087418;28;20043;-73
2021/12/21 11:56:44;;;;;;;49.97;22.23;;;0.70;99.90;;;;;;5123058;28;20052;-72
2021/12/21 11:59:10;;;;;;;49.58;21.83;;;0.70;99.90;;;;;;5087494;28;20051;-73
2021/12/21 12:01:43;;;;;;;47.63;22.55;;;0.70;99.90;;;;;;5139632;27;20084;-73
2021/12/21 12:04:11;;;;;;;51.50;22.90;;;1.00;99.90;;;;;;5070857;28;20388;-72
2021/12/21 12:06:54;;;;;;;46.17;21.02;;;1.10;99.90;;;;;;5137380;27;20051;-73
2021/12/21 12:09:29;;;;;;;50.33;21.10;;;1.20;99.90;;;;;;5138787;27;20043;-72
2021/12/21 12:12:16;;;;;;;51.42;20.90;;;1.20;99.90;;;;;;5124094;28;20142;-75
2021/12/21 12:14:47;;;;;;;47.63;20.55;;;1.20;99.90;;;;;;5138918;27;20043;-72
2021/12/21 12:17:22;;;;;;;47.38;22.23;;;1.30;99.90;;;;;;5108495;28;20079;-72
2021/12/21 12:20:05;;;;;;;48.70;21.00;;;1.40;99.90;;;;;;5108016;28;20495;-73
2021/12/21 12:22:40;;;;;;;51.17;21.88;;;1.30;99.90;;;;;;5123797;28;20102;-73
2021/12/21 12:25:12;;;;;;;50.08;22.65;;;1.30;99.90;;;;;;5123175;28;20039;-73
2021/12/21 12:27:48;;;;;;;49.55;20.45;;;1.40;99.90;;;;;;5106829;28;20039;-73
2021/12/21 12:30:18;;;;;;;48.72;19.77;;;1.40;99.90;;;;;;5123148;28;20055;-73
2021/12/21 12:32:48;;;;;;;42.00;20.35;;;1.50;99.90;;;;;;5122628;28;20047;-72
2021/12/21 12:35:16;;;;;;;46.85;19.48;;;1.50;99.90;;;;;;5143231;27;20152;-73
2021/12/21 12:38:17;;;;;;;48.30;19.02;;;1.60;99.90;;;;;;5132435;28;20075;-72
2021/12/21 12:40:47;;;;;;;49.13;19.30;;;1.60;99.90;;;;;;5133361;28;20059;-73
2021/12/21 12:43:24;;;;;;;45.28;18.58;;;1.60;99.90;;;;;;5133379;28;20422;-72
2021/12/21 12:45:51;;;;;;;43.45;18.80;;;1.60;99.90;;;;;;5116631;28;20070;-74
2021/12/21 12:48:25;;;;;;;43.88;19.17;;;1.70;99.90;;;;;;5101477;28;20080;-73
2021/12/21 12:50:53;;;;;;;43.17;18.55;;;1.60;99.90;;;;;;5151741;27;20240;-73
2021/12/21 12:53:19;;;;;;;43.83;19.35;;;1.50;99.90;;;;;;5112030;28;20079;-73
2021/12/21 12:55:51;;;;;;;44.45;19.80;;;1.80;99.90;;;;;;5110620;28;20123;-73
2021/12/21 12:58:24;;;;;;;45.83;19.42;;;1.80;99.90;;;;;;5127470;28;20181;-72
2021/12/21 13:01:02;;;;;;;43.90;19.05;;;1.80;99.90;;;;;;5103894;28;20522;-72
2021/12/21 13:03:41;;;;;;;47.53;19.15;;;1.90;99.90;;;;;;5105181;28;20090;-70
2021/12/21 13:06:18;;;;;;;42.22;18.83;;;1.90;99.90;;;;;;5123013;28;20084;-72
2021/12/21 13:08:45;;;;;;;37.63;17.80;;;1.90;99.90;;;;;;5124523;28;20047;-73
2021/12/21 13:11:13;;;;;;;35.33;16.80;;;1.80;99.90;;;;;;5108766;28;20074;-73
2021/12/21 13:13:41;;;;;;;43.33;17.05;;;1.90;99.90;;;;;;5122566;28;20047;-71
2021/12/21 13:16:11;;;;;;;35.20;16.02;;;1.90;99.90;;;;;;5103653;28;20103;-72
2021/12/21 13:18:56;;;;;;;39.50;17.00;;;1.90;99.90;;;;;;5138323;27;20143;-72
2021/12/21 13:21:27;;;;;;;37.35;15.30;;;1.80;99.90;;;;;;5086299;28;20077;-73
2021/12/21 13:24:08;;;;;;;34.83;15.32;;;1.80;99.90;;;;;;5122104;28;20391;-72
2021/12/21 13:26:35;;;;;;;35.00;15.40;;;1.70;99.90;;;;;;5104467;28;20439;-72
2021/12/21 13:29:02;;;;;;;37.60;16.33;;;1.80;99.90;;;;;;5104333;28;20130;-72
2021/12/21 13:31:28;;;;;;;34.95;16.60;;;1.80;99.90;;;;;;5087205;28;20134;-73
2021/12/21 13:33:57;;;;;;;38.22;15.60;;;1.70;99.90;;;;;;5104846;28;20148;-72
2021/12/21 13:36:41;;;;;;;36.92;15.70;;;1.80;99.90;;;;;;5138861;27;20055;-73
2021/12/21 13:39:25;;;;;;;37.20;15.65;;;1.80;99.90;;;;;;5121581;28;20075;-72
2021/12/21 13:41:52;;;;;;;37.33;15.45;;;1.70;99.90;;;;;;5102467;28;20051;-72
2021/12/21 13:44:36;;;;;;;35.65;16.02;;;1.80;99.90;;;;;;5102783;28;20388;-72
2021/12/21 13:47:14;;;;;;;40.25;15.75;;;1.70;99.90;;;;;;5121729;28;20056;-73
2021/12/21 13:49:57;;;;;;;35.95;15.70;;;1.80;99.90;;;;;;5104024;28;20078;-73